Edenville, Michigan
Current Conditions -  °F | °C
As of 5:12 AM on Friday 31 Oct 2014 (Local Time) from KIKW Reporting Station
Light Rain Light Rain  
Wind Chill: 42°   Ceiling: 2700
Heat Index: 42°   Visibility: 5mi
Dew Point: 41°   Wind: 3mph
Humidity: 97%   Direction: 280°W
Pressure: 29.89"   Gusts: NA
Location:  43.8°N, 84.38°W
Report Text: KIKW 310912Z AUTO 28003KT 5SM -RA SCT019 BKN027 OVC036 06/05 A2989 RMK AO2 T00560052
Loading
Personal Weather Stations






























Interactive Weather Map
Tropical Storm Tracking
New forecast layout! Learn more

10-Day Weather Forecast

Advertisements
Track Severe Weather on mobile